JIA5312 KDFW-MYGF
Flight info
| Callsign | JIA5312 |
|---|---|
| Flight time | 2h 20m |
| Altitude | 37000 |
| Route | MRSSH3 ZALEA DCT SWB DCT HRV Q105 BLVNS Y290 GAWKS DCT PHK DCT PBI BR63V ZFP |
| Aircraft | CRJ9/M-SDFGIRWY/S |
Departure
| Time | 2026-04-16 22:06 |
|---|---|
| Airport | Dallas Fort Worth International Airport (KDFW) |
Arrival
| Time | 2026-04-17 00:26 |
|---|---|
| Airport | Grand Bahama International Airport (MYGF) |
| Time | Latitude | Longitude | Altitude | Speed | Heading |
|---|---|---|---|---|---|
| 2026-04-16 21:44 | 32.90753 | -97.04522 | 609 ft | 0 kts | 167° |
| 2026-04-16 21:57 | 32.90754 | -97.04522 | 609 ft | 0 kts | 167° |
| 2026-04-16 21:57 | 32.90768 | -97.04526 | 609 ft | 2 kts | 167° |
| 2026-04-16 21:57 | 32.90783 | -97.04529 | 609 ft | 2 kts | 187° |
| 2026-04-16 21:58 | 32.90796 | -97.04520 | 609 ft | 2 kts | 229° |
| 2026-04-16 21:58 | 32.90801 | -97.04504 | 609 ft | 1 kts | 267° |
| 2026-04-16 21:58 | 32.90801 | -97.04498 | 609 ft | 1 kts | 276° |
| 2026-04-16 21:58 | 32.90800 | -97.04494 | 609 ft | 0 kts | 273° |
| 2026-04-16 22:01 | 32.90801 | -97.04496 | 609 ft | 1 kts | 273° |
| 2026-04-16 22:01 | 32.90807 | -97.04544 | 609 ft | 7 kts | 293° |
| 2026-04-16 22:01 | 32.90836 | -97.04589 | 609 ft | 6 kts | 324° |
| 2026-04-16 22:02 | 32.90874 | -97.04617 | 609 ft | 6 kts | 329° |
| 2026-04-16 22:02 | 32.90910 | -97.04640 | 609 ft | 5 kts | 303° |
| 2026-04-16 22:02 | 32.90911 | -97.04681 | 609 ft | 6 kts | 269° |
| 2026-04-16 22:02 | 32.90911 | -97.04758 | 609 ft | 12 kts | 270° |
| 2026-04-16 22:03 | 32.90921 | -97.04865 | 609 ft | 11 kts | 315° |
| 2026-04-16 22:03 | 32.91015 | -97.04876 | 609 ft | 16 kts | 0° |
| 2026-04-16 22:03 | 32.91136 | -97.04874 | 609 ft | 17 kts | 360° |
| 2026-04-16 22:03 | 32.91254 | -97.04868 | 609 ft | 16 kts | 2° |
| 2026-04-16 22:04 | 32.91369 | -97.04872 | 609 ft | 16 kts | 356° |
| 2026-04-16 22:04 | 32.91425 | -97.04950 | 609 ft | 2 kts | 264° |
| 2026-04-16 22:04 | 32.91424 | -97.04956 | 609 ft | 3 kts | 264° |
| 2026-04-16 22:04 | 32.91419 | -97.05022 | 609 ft | 12 kts | 264° |
| 2026-04-16 22:05 | 32.91394 | -97.05068 | 609 ft | 3 kts | 178° |
| 2026-04-16 22:05 | 32.91370 | -97.05068 | 609 ft | 3 kts | 180° |
| 2026-04-16 22:05 | 32.91306 | -97.05074 | 609 ft | 30 kts | 185° |
| 2026-04-16 22:05 | 32.90847 | -97.05080 | 609 ft | 100 kts | 178° |
| 2026-04-16 22:06 | 32.89943 | -97.05085 | 625 ft | 153 kts | 181° |
| 2026-04-16 22:06 | 32.87585 | -97.05215 | 1417 ft | 181 kts | 185° |
| 2026-04-16 22:06 | 32.86354 | -97.05353 | 2141 ft | 179 kts | 185° |
| 2026-04-16 22:07 | 32.85120 | -97.05465 | 2857 ft | 178 kts | 184° |
| 2026-04-16 22:07 | 32.83896 | -97.05133 | 3310 ft | 191 kts | 159° |
| 2026-04-16 22:07 | 32.82516 | -97.04620 | 3445 ft | 218 kts | 169° |
| 2026-04-16 22:07 | 32.80982 | -97.04282 | 3817 ft | 229 kts | 173° |
| 2026-04-16 22:08 | 32.79375 | -97.04023 | 4267 ft | 245 kts | 174° |
| 2026-04-16 22:08 | 32.77608 | -97.03792 | 4864 ft | 258 kts | 175° |
| 2026-04-16 22:08 | 32.75844 | -97.03579 | 5663 ft | 262 kts | 175° |
| 2026-04-16 22:08 | 32.74019 | -97.03369 | 6427 ft | 267 kts | 176° |
| 2026-04-16 22:09 | 32.72170 | -97.03056 | 7171 ft | 274 kts | 163° |
| 2026-04-16 22:09 | 32.70615 | -97.01715 | 7866 ft | 287 kts | 129° |
| 2026-04-16 22:09 | 32.69883 | -96.99498 | 8595 ft | 296 kts | 102° |
| 2026-04-16 22:09 | 32.69474 | -96.97113 | 9301 ft | 300 kts | 105° |
| 2026-04-16 22:10 | 32.68984 | -96.94659 | 10025 ft | 305 kts | 105° |
| 2026-04-16 22:10 | 32.68816 | -96.92154 | 10643 ft | 314 kts | 89° |
| 2026-04-16 22:10 | 32.68884 | -96.89537 | 11238 ft | 322 kts | 90° |
| 2026-04-16 22:10 | 32.68933 | -96.86870 | 11815 ft | 330 kts | 90° |
| 2026-04-16 22:11 | 32.68979 | -96.84112 | 12427 ft | 337 kts | 90° |
| 2026-04-16 22:11 | 32.69023 | -96.81319 | 13021 ft | 343 kts | 90° |
| 2026-04-16 22:11 | 32.69065 | -96.78483 | 13621 ft | 348 kts | 90° |
| 2026-04-16 22:11 | 32.69109 | -96.75594 | 14246 ft | 352 kts | 90° |
| 2026-04-16 22:12 | 32.69153 | -96.72666 | 14805 ft | 358 kts | 89° |
| 2026-04-16 22:12 | 32.69197 | -96.69703 | 15371 ft | 363 kts | 89° |
| 2026-04-16 22:12 | 32.69242 | -96.66705 | 15957 ft | 367 kts | 89° |
| 2026-04-16 22:12 | 32.69284 | -96.63676 | 16550 ft | 371 kts | 89° |
| 2026-04-16 22:13 | 32.69326 | -96.60567 | 17028 ft | 378 kts | 89° |
| 2026-04-16 22:13 | 32.69373 | -96.57447 | 17581 ft | 382 kts | 89° |
| 2026-04-16 22:13 | 32.69413 | -96.54278 | 18175 ft | 384 kts | 89° |
| 2026-04-16 22:13 | 32.69457 | -96.51123 | 18699 ft | 388 kts | 89° |
| 2026-04-16 22:14 | 32.69501 | -96.47873 | 19241 ft | 392 kts | 89° |
| 2026-04-16 22:14 | 32.69541 | -96.44607 | 19749 ft | 396 kts | 89° |
| 2026-04-16 22:14 | 32.69582 | -96.41373 | 20221 ft | 401 kts | 89° |
| 2026-04-16 22:14 | 32.69621 | -96.38040 | 20688 ft | 406 kts | 89° |
| 2026-04-16 22:15 | 32.69664 | -96.34670 | 21231 ft | 408 kts | 90° |
| 2026-04-16 22:15 | 32.69552 | -96.31285 | 21723 ft | 410 kts | 96° |
| 2026-04-16 22:15 | 32.69325 | -96.27903 | 22166 ft | 415 kts | 96° |
| 2026-04-16 22:15 | 32.69103 | -96.24494 | 22582 ft | 419 kts | 96° |
| 2026-04-16 22:16 | 32.68868 | -96.21040 | 22971 ft | 422 kts | 96° |
| 2026-04-16 22:16 | 32.68636 | -96.17523 | 23406 ft | 426 kts | 96° |
| 2026-04-16 22:16 | 32.68401 | -96.14022 | 23979 ft | 427 kts | 96° |
| 2026-04-16 22:16 | 32.68164 | -96.10501 | 24416 ft | 431 kts | 96° |
| 2026-04-16 22:17 | 32.67924 | -96.06949 | 24804 ft | 436 kts | 96° |
| 2026-04-16 22:17 | 32.67687 | -96.03419 | 25675 ft | 426 kts | 96° |
| 2026-04-16 22:17 | 32.67453 | -95.99935 | 26349 ft | 423 kts | 96° |
| 2026-04-16 22:17 | 32.67216 | -95.96455 | 26873 ft | 423 kts | 96° |
| 2026-04-16 22:18 | 32.66982 | -95.93042 | 27435 ft | 422 kts | 96° |
| 2026-04-16 22:18 | 32.66743 | -95.89588 | 27927 ft | 422 kts | 96° |
| 2026-04-16 22:18 | 32.66504 | -95.86093 | 28417 ft | 423 kts | 96° |
| 2026-04-16 22:18 | 32.66269 | -95.82647 | 28939 ft | 421 kts | 97° |
| 2026-04-16 22:19 | 32.66026 | -95.79179 | 29386 ft | 423 kts | 97° |
| 2026-04-16 22:19 | 32.65781 | -95.75703 | 29888 ft | 422 kts | 96° |
| 2026-04-16 22:19 | 32.65540 | -95.72224 | 30356 ft | 423 kts | 97° |
| 2026-04-16 22:19 | 32.65297 | -95.68757 | 30843 ft | 422 kts | 97° |
| 2026-04-16 22:20 | 32.65048 | -95.65276 | 31302 ft | 423 kts | 97° |
| 2026-04-16 22:20 | 32.64806 | -95.61840 | 31749 ft | 423 kts | 97° |
| 2026-04-16 22:20 | 32.64557 | -95.58380 | 32179 ft | 424 kts | 97° |
| 2026-04-16 22:20 | 32.64308 | -95.54858 | 32564 ft | 426 kts | 96° |
| 2026-04-16 22:21 | 32.64056 | -95.51359 | 33076 ft | 425 kts | 97° |
| 2026-04-16 22:21 | 32.63809 | -95.47911 | 33471 ft | 426 kts | 97° |
| 2026-04-16 22:21 | 32.63555 | -95.44383 | 33888 ft | 427 kts | 97° |
| 2026-04-16 22:21 | 32.63300 | -95.40891 | 34240 ft | 430 kts | 97° |
| 2026-04-16 22:22 | 32.63044 | -95.37335 | 34682 ft | 430 kts | 97° |
| 2026-04-16 22:22 | 32.62791 | -95.33845 | 35128 ft | 429 kts | 98° |
| 2026-04-16 22:22 | 32.62527 | -95.30295 | 35458 ft | 431 kts | 98° |
| 2026-04-16 22:22 | 32.62267 | -95.26746 | 35844 ft | 431 kts | 97° |
| 2026-04-16 22:23 | 32.62004 | -95.23222 | 36170 ft | 432 kts | 98° |
| 2026-04-16 22:23 | 32.61744 | -95.19699 | 36473 ft | 434 kts | 98° |
| 2026-04-16 22:23 | 32.61475 | -95.16097 | 36817 ft | 435 kts | 98° |
| 2026-04-16 22:23 | 32.61211 | -95.12524 | 36969 ft | 442 kts | 98° |
| 2026-04-16 22:24 | 32.60929 | -95.08846 | 36977 ft | 453 kts | 98° |
| 2026-04-16 22:24 | 32.60646 | -95.05109 | 36988 ft | 464 kts | 98° |
| 2026-04-16 22:24 | 32.60354 | -95.01258 | 37000 ft | 475 kts | 98° |
| 2026-04-16 22:24 | 32.60052 | -94.97324 | 37013 ft | 486 kts | 98° |
| 2026-04-16 22:25 | 32.59439 | -94.89233 | 37009 ft | 504 kts | 98° |
| 2026-04-16 22:25 | 32.58789 | -94.80833 | 36994 ft | 518 kts | 98° |
| 2026-04-16 22:26 | 32.58260 | -94.76612 | 36945 ft | 517 kts | 110° |
| 2026-04-16 22:26 | 32.57158 | -94.72547 | 37065 ft | 515 kts | 113° |
| 2026-04-16 22:26 | 32.54870 | -94.64459 | 36992 ft | 524 kts | 113° |
| 2026-04-16 22:27 | 32.52542 | -94.56236 | 36991 ft | 528 kts | 113° |
| 2026-04-16 22:27 | 32.50223 | -94.48041 | 36990 ft | 530 kts | 113° |
| 2026-04-16 22:28 | 32.47866 | -94.39741 | 36995 ft | 532 kts | 113° |
| 2026-04-16 22:28 | 32.45504 | -94.31441 | 36979 ft | 533 kts | 114° |
| 2026-04-16 22:29 | 32.43129 | -94.23139 | 36984 ft | 533 kts | 114° |
| 2026-04-16 22:29 | 32.40773 | -94.14900 | 36986 ft | 532 kts | 114° |
| 2026-04-16 22:30 | 32.38386 | -94.06584 | 36985 ft | 533 kts | 114° |
| 2026-04-16 22:30 | 32.36002 | -93.98329 | 36996 ft | 532 kts | 114° |
| 2026-04-16 22:31 | 32.33628 | -93.90107 | 37000 ft | 533 kts | 114° |
| 2026-04-16 22:31 | 32.31229 | -93.81818 | 37003 ft | 533 kts | 114° |
| 2026-04-16 22:32 | 32.28829 | -93.73569 | 37015 ft | 534 kts | 114° |
| 2026-04-16 22:32 | 32.26419 | -93.65291 | 37008 ft | 534 kts | 114° |
| 2026-04-16 22:33 | 32.24007 | -93.57028 | 37010 ft | 534 kts | 114° |
| 2026-04-16 22:33 | 32.21583 | -93.48770 | 37011 ft | 534 kts | 114° |
| 2026-04-16 22:34 | 32.19280 | -93.40468 | 37054 ft | 529 kts | 116° |
| 2026-04-16 22:34 | 32.16732 | -93.32313 | 36994 ft | 533 kts | 115° |
| 2026-04-16 22:35 | 32.14251 | -93.24043 | 36997 ft | 533 kts | 115° |
| 2026-04-16 22:35 | 32.11799 | -93.15822 | 37002 ft | 532 kts | 115° |
| 2026-04-16 22:36 | 32.09353 | -93.07633 | 37010 ft | 532 kts | 114° |
| 2026-04-16 22:36 | 32.06882 | -92.99408 | 37012 ft | 532 kts | 114° |
| 2026-04-16 22:37 | 32.04417 | -92.91213 | 37018 ft | 532 kts | 114° |
| 2026-04-16 22:37 | 32.01951 | -92.83041 | 37019 ft | 532 kts | 114° |
| 2026-04-16 22:38 | 31.99474 | -92.74841 | 37019 ft | 533 kts | 114° |
| 2026-04-16 22:38 | 31.96559 | -92.66930 | 36936 ft | 514 kts | 134° |
| 2026-04-16 22:39 | 31.94278 | -92.63769 | 37127 ft | 503 kts | 140° |
| 2026-04-16 22:39 | 31.91932 | -92.60701 | 37012 ft | 507 kts | 140° |
| 2026-04-16 22:39 | 31.87220 | -92.54569 | 37037 ft | 508 kts | 140° |
| 2026-04-16 22:40 | 31.82454 | -92.48372 | 37039 ft | 509 kts | 140° |
| 2026-04-16 22:40 | 31.77698 | -92.42205 | 37045 ft | 511 kts | 140° |
| 2026-04-16 22:41 | 31.72946 | -92.36050 | 37045 ft | 511 kts | 140° |
| 2026-04-16 22:41 | 31.68172 | -92.29872 | 37033 ft | 510 kts | 140° |
| 2026-04-16 22:42 | 31.63386 | -92.23698 | 37027 ft | 509 kts | 140° |
| 2026-04-16 22:42 | 31.58660 | -92.17607 | 37030 ft | 509 kts | 140° |
| 2026-04-16 22:43 | 31.53888 | -92.11461 | 37023 ft | 509 kts | 140° |
| 2026-04-16 22:43 | 31.49123 | -92.05340 | 37029 ft | 509 kts | 140° |
| 2026-04-16 22:44 | 31.44349 | -91.99216 | 37038 ft | 509 kts | 140° |
| 2026-04-16 22:44 | 31.39583 | -91.93111 | 37039 ft | 509 kts | 140° |
| 2026-04-16 22:45 | 31.34790 | -91.86987 | 37051 ft | 508 kts | 140° |
| 2026-04-16 22:45 | 31.30024 | -91.80907 | 37036 ft | 509 kts | 140° |
| 2026-04-16 22:46 | 31.25263 | -91.74831 | 37025 ft | 509 kts | 140° |
| 2026-04-16 22:46 | 31.20483 | -91.68758 | 37040 ft | 510 kts | 140° |
| 2026-04-16 22:47 | 31.15688 | -91.62666 | 37044 ft | 510 kts | 140° |
| 2026-04-16 22:47 | 31.10884 | -91.56570 | 37050 ft | 510 kts | 140° |
| 2026-04-16 22:48 | 31.06093 | -91.50504 | 37063 ft | 509 kts | 140° |
| 2026-04-16 22:48 | 31.01296 | -91.44441 | 37067 ft | 509 kts | 140° |
| 2026-04-16 22:49 | 30.96509 | -91.38403 | 37067 ft | 510 kts | 140° |
| 2026-04-16 22:49 | 30.91695 | -91.32333 | 37044 ft | 510 kts | 140° |
| 2026-04-16 22:50 | 30.86847 | -91.26234 | 37054 ft | 509 kts | 140° |
| 2026-04-16 22:50 | 30.82033 | -91.20185 | 37057 ft | 508 kts | 140° |
| 2026-04-16 22:51 | 30.77244 | -91.14179 | 37058 ft | 508 kts | 140° |
| 2026-04-16 22:51 | 30.72432 | -91.08159 | 37060 ft | 509 kts | 140° |
| 2026-04-16 22:52 | 30.67642 | -91.02167 | 37061 ft | 509 kts | 140° |
| 2026-04-16 22:52 | 30.62834 | -90.96168 | 37064 ft | 508 kts | 140° |
| 2026-04-16 22:53 | 30.58000 | -90.90144 | 37064 ft | 509 kts | 140° |
| 2026-04-16 22:53 | 30.53186 | -90.84152 | 37064 ft | 508 kts | 140° |
| 2026-04-16 22:54 | 30.48392 | -90.78198 | 37062 ft | 509 kts | 140° |
| 2026-04-16 22:54 | 30.43565 | -90.72207 | 37065 ft | 509 kts | 140° |
| 2026-04-16 22:55 | 30.38724 | -90.66212 | 37067 ft | 508 kts | 140° |
| 2026-04-16 22:55 | 30.33916 | -90.60272 | 37063 ft | 509 kts | 140° |
| 2026-04-16 22:56 | 30.29061 | -90.54275 | 37066 ft | 509 kts | 140° |
| 2026-04-16 22:56 | 30.24252 | -90.48341 | 37070 ft | 509 kts | 140° |
| 2026-04-16 22:57 | 30.19402 | -90.42375 | 37079 ft | 509 kts | 140° |
| 2026-04-16 22:57 | 30.14547 | -90.36407 | 37083 ft | 509 kts | 140° |
| 2026-04-16 22:58 | 30.09696 | -90.30456 | 37063 ft | 509 kts | 140° |
| 2026-04-16 22:58 | 30.04844 | -90.24515 | 37066 ft | 509 kts | 140° |
| 2026-04-16 22:59 | 30.00005 | -90.18589 | 37075 ft | 508 kts | 140° |
| 2026-04-16 22:59 | 29.95168 | -90.12683 | 37077 ft | 508 kts | 140° |
| 2026-04-16 23:00 | 29.90330 | -90.06783 | 37083 ft | 508 kts | 140° |
| 2026-04-16 23:00 | 29.85498 | -90.00899 | 37080 ft | 508 kts | 140° |
| 2026-04-16 23:01 | 29.80894 | -89.94697 | 37094 ft | 511 kts | 136° |
| 2026-04-16 23:01 | 29.76294 | -89.88408 | 37093 ft | 511 kts | 136° |
| 2026-04-16 23:02 | 29.71717 | -89.82172 | 37091 ft | 511 kts | 136° |
| 2026-04-16 23:02 | 29.67131 | -89.75941 | 37087 ft | 512 kts | 136° |
| 2026-04-16 23:03 | 29.62552 | -89.69720 | 37082 ft | 512 kts | 136° |
| 2026-04-16 23:03 | 29.57951 | -89.63479 | 37082 ft | 512 kts | 136° |
| 2026-04-16 23:04 | 29.53325 | -89.57220 | 37087 ft | 512 kts | 136° |
| 2026-04-16 23:04 | 29.48721 | -89.50992 | 37089 ft | 512 kts | 136° |
| 2026-04-16 23:05 | 29.44131 | -89.44804 | 37093 ft | 513 kts | 136° |
| 2026-04-16 23:05 | 29.39519 | -89.38586 | 37097 ft | 513 kts | 135° |
| 2026-04-16 23:06 | 29.34887 | -89.32352 | 37081 ft | 513 kts | 136° |
| 2026-04-16 23:06 | 29.30261 | -89.26142 | 37087 ft | 512 kts | 136° |
| 2026-04-16 23:07 | 29.25674 | -89.19988 | 37087 ft | 512 kts | 136° |
| 2026-04-16 23:07 | 29.21034 | -89.13776 | 37086 ft | 511 kts | 136° |
| 2026-04-16 23:08 | 29.16443 | -89.07632 | 37087 ft | 511 kts | 136° |
| 2026-04-16 23:08 | 29.11803 | -89.01437 | 37088 ft | 511 kts | 136° |
| 2026-04-16 23:09 | 29.07190 | -88.95290 | 37087 ft | 511 kts | 136° |
| 2026-04-16 23:09 | 29.02575 | -88.89147 | 37097 ft | 511 kts | 136° |
| 2026-04-16 23:10 | 28.97935 | -88.82979 | 37098 ft | 511 kts | 136° |
| 2026-04-16 23:10 | 28.93309 | -88.76840 | 37098 ft | 511 kts | 136° |
| 2026-04-16 23:11 | 28.88712 | -88.70747 | 37101 ft | 510 kts | 136° |
| 2026-04-16 23:11 | 28.84120 | -88.64590 | 37102 ft | 511 kts | 135° |
| 2026-04-16 23:12 | 28.79529 | -88.58431 | 37103 ft | 510 kts | 135° |
| 2026-04-16 23:12 | 28.74947 | -88.52287 | 37107 ft | 510 kts | 135° |
| 2026-04-16 23:13 | 28.70324 | -88.46108 | 37110 ft | 510 kts | 135° |
| 2026-04-16 23:13 | 28.65746 | -88.39994 | 37113 ft | 510 kts | 135° |
| 2026-04-16 23:14 | 28.61204 | -88.33938 | 37109 ft | 511 kts | 135° |
| 2026-04-16 23:14 | 28.56617 | -88.27832 | 37108 ft | 510 kts | 135° |
| 2026-04-16 23:15 | 28.49698 | -88.18636 | 37104 ft | 509 kts | 135° |
| 2026-04-16 23:16 | 28.45111 | -88.12553 | 37109 ft | 509 kts | 135° |
| 2026-04-16 23:16 | 28.40502 | -88.06444 | 37108 ft | 508 kts | 135° |
| 2026-04-16 23:16 | 28.38401 | -88.03265 | 37044 ft | 515 kts | 121° |
| 2026-04-16 23:17 | 28.37066 | -87.99477 | 37169 ft | 514 kts | 109° |
| 2026-04-16 23:17 | 28.34866 | -87.91779 | 37077 ft | 519 kts | 110° |
| 2026-04-16 23:18 | 28.32624 | -87.83997 | 37088 ft | 520 kts | 110° |
| 2026-04-16 23:18 | 28.30383 | -87.76269 | 37102 ft | 520 kts | 110° |
| 2026-04-16 23:19 | 28.28131 | -87.68494 | 37112 ft | 519 kts | 110° |
| 2026-04-16 23:19 | 28.25870 | -87.60723 | 37116 ft | 519 kts | 109° |
| 2026-04-16 23:20 | 28.23614 | -87.52982 | 37118 ft | 520 kts | 109° |
| 2026-04-16 23:20 | 28.21338 | -87.45195 | 37122 ft | 519 kts | 110° |
| 2026-04-16 23:21 | 28.19078 | -87.37474 | 37120 ft | 520 kts | 109° |
| 2026-04-16 23:21 | 28.16850 | -87.29889 | 37105 ft | 519 kts | 110° |
| 2026-04-16 23:22 | 28.14585 | -87.22186 | 37107 ft | 518 kts | 110° |
| 2026-04-16 23:22 | 28.12309 | -87.14478 | 37107 ft | 517 kts | 110° |
| 2026-04-16 23:23 | 28.10027 | -87.06753 | 37110 ft | 517 kts | 110° |
| 2026-04-16 23:23 | 28.07748 | -86.99062 | 37114 ft | 517 kts | 110° |
| 2026-04-16 23:24 | 28.05456 | -86.91348 | 37111 ft | 517 kts | 110° |
| 2026-04-16 23:24 | 28.03180 | -86.83695 | 37109 ft | 517 kts | 110° |
| 2026-04-16 23:25 | 28.00878 | -86.75976 | 37111 ft | 517 kts | 109° |
| 2026-04-16 23:25 | 27.98658 | -86.68289 | 37115 ft | 517 kts | 109° |
| 2026-04-16 23:26 | 27.96426 | -86.60575 | 37116 ft | 517 kts | 109° |
| 2026-04-16 23:26 | 27.94199 | -86.52893 | 37117 ft | 516 kts | 109° |
| 2026-04-16 23:27 | 27.91969 | -86.45225 | 37119 ft | 517 kts | 109° |
| 2026-04-16 23:27 | 27.89713 | -86.37489 | 37119 ft | 516 kts | 109° |
| 2026-04-16 23:28 | 27.87482 | -86.29846 | 37102 ft | 516 kts | 109° |
| 2026-04-16 23:28 | 27.85233 | -86.22173 | 37103 ft | 515 kts | 109° |
| 2026-04-16 23:29 | 27.82978 | -86.14489 | 37106 ft | 515 kts | 109° |
| 2026-04-16 23:29 | 27.80729 | -86.06840 | 37107 ft | 515 kts | 109° |
| 2026-04-16 23:30 | 27.78484 | -85.99219 | 37109 ft | 515 kts | 109° |
| 2026-04-16 23:30 | 27.76216 | -85.91560 | 37111 ft | 514 kts | 109° |
| 2026-04-16 23:31 | 27.73956 | -85.83923 | 37112 ft | 514 kts | 109° |
| 2026-04-16 23:31 | 27.71707 | -85.76343 | 37112 ft | 514 kts | 109° |
| 2026-04-16 23:32 | 27.69432 | -85.68704 | 37114 ft | 515 kts | 109° |
| 2026-04-16 23:32 | 27.67159 | -85.61073 | 37115 ft | 514 kts | 109° |
| 2026-04-16 23:33 | 27.64873 | -85.53432 | 37116 ft | 514 kts | 109° |
| 2026-04-16 23:33 | 27.62603 | -85.45844 | 37116 ft | 514 kts | 109° |
| 2026-04-16 23:34 | 27.60312 | -85.38214 | 37117 ft | 514 kts | 109° |
| 2026-04-16 23:34 | 27.58466 | -85.30476 | 37119 ft | 512 kts | 100° |
| 2026-04-16 23:35 | 27.57126 | -85.22626 | 37103 ft | 512 kts | 101° |
| 2026-04-16 23:35 | 27.55766 | -85.14801 | 37102 ft | 512 kts | 101° |
| 2026-04-16 23:36 | 27.54391 | -85.06939 | 37105 ft | 512 kts | 100° |
| 2026-04-16 23:36 | 27.53016 | -84.99092 | 37108 ft | 512 kts | 101° |
| 2026-04-16 23:37 | 27.51859 | -84.92541 | 37114 ft | 512 kts | 100° |
| 2026-04-16 23:37 | 27.50246 | -84.83410 | 37113 ft | 511 kts | 100° |
| 2026-04-16 23:38 | 27.48864 | -84.75608 | 37115 ft | 511 kts | 100° |
| 2026-04-16 23:38 | 27.47474 | -84.67798 | 37113 ft | 511 kts | 100° |
| 2026-04-16 23:39 | 27.46072 | -84.59939 | 37115 ft | 511 kts | 100° |
| 2026-04-16 23:39 | 27.44668 | -84.52105 | 37117 ft | 511 kts | 100° |
| 2026-04-16 23:40 | 27.43263 | -84.44297 | 37116 ft | 511 kts | 100° |
| 2026-04-16 23:40 | 27.42093 | -84.37797 | 37120 ft | 511 kts | 100° |
| 2026-04-16 23:41 | 27.40461 | -84.28777 | 37104 ft | 510 kts | 101° |
| 2026-04-16 23:41 | 27.39051 | -84.21021 | 37107 ft | 510 kts | 101° |
| 2026-04-16 23:42 | 27.37623 | -84.13177 | 37110 ft | 509 kts | 101° |
| 2026-04-16 23:42 | 27.36196 | -84.05372 | 37108 ft | 509 kts | 101° |
| 2026-04-16 23:43 | 27.34818 | -83.97849 | 37143 ft | 507 kts | 100° |
| 2026-04-16 23:43 | 27.33392 | -83.90108 | 37110 ft | 507 kts | 101° |
| 2026-04-16 23:44 | 27.31964 | -83.82371 | 37117 ft | 507 kts | 100° |
| 2026-04-16 23:44 | 27.30525 | -83.74612 | 37113 ft | 507 kts | 100° |
| 2026-04-16 23:45 | 27.29092 | -83.66888 | 37114 ft | 507 kts | 100° |
| 2026-04-16 23:45 | 27.27646 | -83.59126 | 37116 ft | 507 kts | 100° |
| 2026-04-16 23:46 | 27.26202 | -83.51402 | 37118 ft | 507 kts | 100° |
| 2026-04-16 23:46 | 27.24755 | -83.43679 | 37115 ft | 506 kts | 100° |
| 2026-04-16 23:47 | 27.23299 | -83.35957 | 37103 ft | 506 kts | 100° |
| 2026-04-16 23:47 | 27.21831 | -83.28179 | 37100 ft | 505 kts | 100° |
| 2026-04-16 23:48 | 27.20369 | -83.20457 | 37102 ft | 504 kts | 101° |
| 2026-04-16 23:48 | 27.18908 | -83.12761 | 37093 ft | 503 kts | 101° |
| 2026-04-16 23:49 | 27.17563 | -83.05109 | 37094 ft | 502 kts | 98° |
| 2026-04-16 23:49 | 27.16343 | -82.97346 | 37080 ft | 501 kts | 98° |
| 2026-04-16 23:50 | 27.15132 | -82.89709 | 37105 ft | 496 kts | 98° |
| 2026-04-16 23:50 | 27.13926 | -82.82125 | 37104 ft | 493 kts | 98° |
| 2026-04-16 23:51 | 27.12720 | -82.74565 | 37097 ft | 491 kts | 98° |
| 2026-04-16 23:51 | 27.11517 | -82.67055 | 37094 ft | 490 kts | 98° |
| 2026-04-16 23:52 | 27.10314 | -82.59577 | 37096 ft | 489 kts | 98° |
| 2026-04-16 23:52 | 27.09104 | -82.52069 | 37101 ft | 488 kts | 98° |
| 2026-04-16 23:53 | 27.07889 | -82.44577 | 37097 ft | 488 kts | 98° |
| 2026-04-16 23:53 | 27.06676 | -82.37110 | 37099 ft | 488 kts | 97° |
| 2026-04-16 23:54 | 27.05456 | -82.29628 | 37085 ft | 487 kts | 98° |
| 2026-04-16 23:54 | 27.04231 | -82.22141 | 37084 ft | 487 kts | 98° |
| 2026-04-16 23:55 | 27.03013 | -82.14722 | 37081 ft | 486 kts | 98° |
| 2026-04-16 23:55 | 27.01789 | -82.07295 | 37082 ft | 485 kts | 98° |
| 2026-04-16 23:56 | 27.00560 | -81.99857 | 37084 ft | 485 kts | 98° |
| 2026-04-16 23:56 | 26.99333 | -81.92459 | 37091 ft | 484 kts | 98° |
| 2026-04-16 23:57 | 26.98096 | -81.85029 | 37091 ft | 484 kts | 98° |
| 2026-04-16 23:57 | 26.96859 | -81.77624 | 37094 ft | 484 kts | 98° |
| 2026-04-16 23:58 | 26.95617 | -81.70208 | 37094 ft | 484 kts | 98° |
| 2026-04-16 23:58 | 26.94362 | -81.62737 | 37093 ft | 484 kts | 98° |
| 2026-04-16 23:59 | 26.93209 | -81.55904 | 37092 ft | 485 kts | 98° |
| 2026-04-16 23:59 | 26.91939 | -81.48399 | 37104 ft | 490 kts | 98° |
| 2026-04-17 00:00 | 26.90662 | -81.40876 | 37122 ft | 492 kts | 97° |
| 2026-04-17 00:00 | 26.89373 | -81.33312 | 37097 ft | 494 kts | 98° |
| 2026-04-17 00:01 | 26.88084 | -81.25761 | 37096 ft | 494 kts | 98° |
| 2026-04-17 00:01 | 26.86783 | -81.18176 | 37100 ft | 494 kts | 98° |
| 2026-04-17 00:02 | 26.85484 | -81.10631 | 37100 ft | 493 kts | 98° |
| 2026-04-17 00:02 | 26.84178 | -81.03069 | 37109 ft | 489 kts | 98° |
| 2026-04-17 00:03 | 26.82889 | -80.95615 | 37101 ft | 487 kts | 98° |
| 2026-04-17 00:03 | 26.81589 | -80.88146 | 37091 ft | 486 kts | 98° |
| 2026-04-17 00:04 | 26.80292 | -80.80704 | 37084 ft | 485 kts | 98° |
| 2026-04-17 00:04 | 26.79002 | -80.73315 | 37088 ft | 484 kts | 98° |
| 2026-04-17 00:05 | 26.77722 | -80.65886 | 37086 ft | 483 kts | 97° |
| 2026-04-17 00:05 | 26.76484 | -80.58506 | 37088 ft | 483 kts | 97° |
| 2026-04-17 00:06 | 26.75228 | -80.51057 | 37091 ft | 482 kts | 97° |
| 2026-04-17 00:06 | 26.73978 | -80.43658 | 37097 ft | 482 kts | 97° |
| 2026-04-17 00:07 | 26.72728 | -80.36276 | 36515 ft | 494 kts | 97° |
| 2026-04-17 00:07 | 26.72080 | -80.32460 | 35914 ft | 500 kts | 98° |
| 2026-04-17 00:07 | 26.71430 | -80.28642 | 35330 ft | 504 kts | 98° |
| 2026-04-17 00:07 | 26.70770 | -80.24777 | 34762 ft | 499 kts | 98° |
| 2026-04-17 00:08 | 26.70116 | -80.20955 | 34230 ft | 495 kts | 98° |
| 2026-04-17 00:08 | 26.69471 | -80.17194 | 33686 ft | 492 kts | 99° |
| 2026-04-17 00:08 | 26.68821 | -80.13403 | 33136 ft | 491 kts | 99° |
| 2026-04-17 00:08 | 26.68187 | -80.09692 | 32635 ft | 489 kts | 98° |
| 2026-04-17 00:09 | 26.67977 | -80.05873 | 32063 ft | 485 kts | 87° |
| 2026-04-17 00:09 | 26.67989 | -80.02151 | 31613 ft | 483 kts | 87° |
| 2026-04-17 00:09 | 26.67992 | -79.98443 | 31123 ft | 464 kts | 87° |
| 2026-04-17 00:09 | 26.67990 | -79.94938 | 30442 ft | 442 kts | 87° |
| 2026-04-17 00:10 | 26.67984 | -79.91610 | 29820 ft | 425 kts | 86° |
| 2026-04-17 00:10 | 26.67981 | -79.88354 | 29163 ft | 411 kts | 86° |
| 2026-04-17 00:10 | 26.67978 | -79.85223 | 28521 ft | 398 kts | 86° |
| 2026-04-17 00:10 | 26.67974 | -79.82175 | 27882 ft | 386 kts | 86° |
| 2026-04-17 00:11 | 26.67971 | -79.79241 | 27250 ft | 376 kts | 86° |
| 2026-04-17 00:11 | 26.67967 | -79.76352 | 26612 ft | 366 kts | 86° |
| 2026-04-17 00:11 | 26.67960 | -79.73579 | 25993 ft | 357 kts | 87° |
| 2026-04-17 00:11 | 26.67953 | -79.70840 | 25329 ft | 350 kts | 87° |
| 2026-04-17 00:12 | 26.67946 | -79.68134 | 24631 ft | 344 kts | 87° |
| 2026-04-17 00:12 | 26.67938 | -79.65470 | 23939 ft | 339 kts | 88° |
| 2026-04-17 00:12 | 26.67930 | -79.62891 | 23273 ft | 333 kts | 88° |
| 2026-04-17 00:12 | 26.67922 | -79.60333 | 22607 ft | 328 kts | 88° |
| 2026-04-17 00:13 | 26.67911 | -79.57795 | 21943 ft | 323 kts | 89° |
| 2026-04-17 00:13 | 26.67901 | -79.55318 | 21288 ft | 318 kts | 89° |
| 2026-04-17 00:13 | 26.67890 | -79.52853 | 20626 ft | 313 kts | 89° |
| 2026-04-17 00:13 | 26.67879 | -79.50468 | 19977 ft | 309 kts | 89° |
| 2026-04-17 00:14 | 26.67868 | -79.48090 | 19321 ft | 305 kts | 89° |
| 2026-04-17 00:14 | 26.67856 | -79.45741 | 18666 ft | 301 kts | 89° |
| 2026-04-17 00:14 | 26.67848 | -79.43451 | 18021 ft | 297 kts | 89° |
| 2026-04-17 00:14 | 26.67837 | -79.41157 | 17368 ft | 293 kts | 89° |
| 2026-04-17 00:15 | 26.67823 | -79.38882 | 16717 ft | 290 kts | 89° |
| 2026-04-17 00:15 | 26.67810 | -79.36670 | 16071 ft | 287 kts | 89° |
| 2026-04-17 00:15 | 26.67798 | -79.34467 | 15419 ft | 284 kts | 89° |
| 2026-04-17 00:15 | 26.67785 | -79.32312 | 14787 ft | 281 kts | 89° |
| 2026-04-17 00:16 | 26.67773 | -79.30184 | 14149 ft | 279 kts | 89° |
| 2026-04-17 00:16 | 26.67760 | -79.28049 | 13505 ft | 276 kts | 88° |
| 2026-04-17 00:16 | 26.67747 | -79.25904 | 12862 ft | 274 kts | 88° |
| 2026-04-17 00:16 | 26.67737 | -79.23780 | 12221 ft | 272 kts | 89° |
| 2026-04-17 00:17 | 26.67726 | -79.21695 | 11587 ft | 270 kts | 89° |
| 2026-04-17 00:17 | 26.67715 | -79.19600 | 10946 ft | 268 kts | 89° |
| 2026-04-17 00:17 | 26.67702 | -79.17538 | 10303 ft | 266 kts | 89° |
| 2026-04-17 00:17 | 26.67688 | -79.15508 | 9669 ft | 264 kts | 90° |
| 2026-04-17 00:18 | 26.67657 | -79.13451 | 9024 ft | 262 kts | 92° |
| 2026-04-17 00:18 | 26.67588 | -79.11423 | 8379 ft | 260 kts | 92° |
| 2026-04-17 00:18 | 26.67524 | -79.09422 | 7735 ft | 258 kts | 92° |
| 2026-04-17 00:18 | 26.67460 | -79.07442 | 7089 ft | 256 kts | 92° |
| 2026-04-17 00:19 | 26.67173 | -79.05485 | 6418 ft | 253 kts | 109° |
| 2026-04-17 00:19 | 26.66565 | -79.03674 | 5782 ft | 250 kts | 109° |
| 2026-04-17 00:19 | 26.65972 | -79.01852 | 5128 ft | 247 kts | 109° |
| 2026-04-17 00:19 | 26.65391 | -79.00067 | 4478 ft | 245 kts | 109° |
| 2026-04-17 00:20 | 26.64813 | -78.98289 | 3883 ft | 247 kts | 109° |
| 2026-04-17 00:20 | 26.64216 | -78.96449 | 3241 ft | 252 kts | 109° |
| 2026-04-17 00:20 | 26.63628 | -78.94643 | 2961 ft | 241 kts | 109° |
| 2026-04-17 00:20 | 26.63075 | -78.92941 | 2942 ft | 224 kts | 108° |
| 2026-04-17 00:21 | 26.62542 | -78.91299 | 3002 ft | 219 kts | 108° |
| 2026-04-17 00:21 | 26.61757 | -78.89872 | 2940 ft | 221 kts | 134° |
| 2026-04-17 00:21 | 26.60575 | -78.88779 | 2975 ft | 216 kts | 137° |
| 2026-04-17 00:21 | 26.59399 | -78.87713 | 2960 ft | 215 kts | 138° |
| 2026-04-17 00:22 | 26.57038 | -78.85580 | 2212 ft | 222 kts | 137° |
| 2026-04-17 00:22 | 26.55829 | -78.84501 | 1807 ft | 218 kts | 137° |
| 2026-04-17 00:22 | 26.54804 | -78.83353 | 1733 ft | 191 kts | 127° |
| 2026-04-17 00:23 | 26.54122 | -78.82519 | 1711 ft | 174 kts | 127° |
| 2026-04-17 00:23 | 26.53320 | -78.81555 | 1715 ft | 168 kts | 128° |
| 2026-04-17 00:23 | 26.52510 | -78.80577 | 1765 ft | 172 kts | 126° |
| 2026-04-17 00:23 | 26.51875 | -78.79401 | 1570 ft | 182 kts | 103° |
| 2026-04-17 00:24 | 26.51812 | -78.78007 | 1492 ft | 183 kts | 78° |
| 2026-04-17 00:24 | 26.52300 | -78.76595 | 1046 ft | 190 kts | 58° |
| 2026-04-17 00:24 | 26.52884 | -78.75475 | 844 ft | 140 kts | 61° |
| 2026-04-17 00:24 | 26.53102 | -78.75031 | 677 ft | 119 kts | 58° |
| 2026-04-17 00:25 | 26.53557 | -78.74142 | 480 ft | 129 kts | 60° |
| 2026-04-17 00:25 | 26.53997 | -78.73239 | 394 ft | 135 kts | 59° |
| 2026-04-17 00:25 | 26.54483 | -78.72307 | 312 ft | 142 kts | 58° |
| 2026-04-17 00:25 | 26.54979 | -78.71340 | 143 ft | 141 kts | 60° |
| 2026-04-17 00:26 | 26.55438 | -78.70418 | 11 ft | 122 kts | 60° |
| 2026-04-17 00:26 | 26.55715 | -78.69865 | 10 ft | 55 kts | 59° |
| 2026-04-17 00:26 | 26.55860 | -78.69585 | 10 ft | 32 kts | 64° |
| 2026-04-17 00:26 | 26.55867 | -78.69476 | 10 ft | 3 kts | 113° |
| 2026-04-17 00:27 | 26.55872 | -78.69488 | 10 ft | 0 kts | 113° |
| 2026-04-17 00:27 | 26.55859 | -78.69456 | 10 ft | 15 kts | 122° |
| 2026-04-17 00:27 | 26.55750 | -78.69481 | 10 ft | 22 kts | 223° |
| 2026-04-17 00:28 | 26.55626 | -78.69602 | 10 ft | 23 kts | 221° |
| 2026-04-17 00:28 | 26.55501 | -78.69724 | 10 ft | 23 kts | 221° |
| 2026-04-17 00:28 | 26.55375 | -78.69847 | 10 ft | 23 kts | 221° |
| 2026-04-17 00:28 | 26.55249 | -78.69969 | 10 ft | 23 kts | 220° |
| 2026-04-17 00:29 | 26.55118 | -78.70084 | 10 ft | 22 kts | 215° |
| 2026-04-17 00:29 | 26.55027 | -78.70191 | 10 ft | 18 kts | 229° |
| 2026-04-17 00:29 | 26.54954 | -78.70227 | 10 ft | 3 kts | 202° |
| 2026-04-17 00:29 | 26.54896 | -78.70238 | 10 ft | 10 kts | 180° |
| 2026-04-17 00:30 | 26.54840 | -78.70262 | 10 ft | 5 kts | 218° |
| 2026-04-17 00:30 | 26.54832 | -78.70280 | 10 ft | 0 kts | 287° |